sensor_id;sensor_type;location;lat;lon;timestamp;pressure;altitude;pressure_sealevel;temperature;humidity
72587;BME280;60621;49.576;11.024;2023-03-19T00:00:45;98030.03;;;8.87;66.90
72587;BME280;60621;49.576;11.024;2023-03-19T00:01:47;98028.59;;;8.89;67.50
72587;BME280;60621;49.576;11.024;2023-03-19T00:02:49;98031.28;;;8.93;67.11
72587;BME280;60621;49.576;11.024;2023-03-19T00:03:52;98034.09;;;9.04;67.32
72587;BME280;60621;49.576;11.024;2023-03-19T00:04:54;98029.31;;;9.09;67.16
72587;BME280;60621;49.576;11.024;2023-03-19T00:05:56;98037.13;;;9.06;66.88
72587;BME280;60621;49.576;11.024;2023-03-19T00:06:58;98032.44;;;8.95;67.53
72587;BME280;60621;49.576;11.024;2023-03-19T00:08:00;98032.34;;;8.88;67.09
72587;BME280;60621;49.576;11.024;2023-03-19T00:09:01;98032.34;;;8.88;67.41
72587;BME280;60621;49.576;11.024;2023-03-19T00:10:03;98030.47;;;8.89;66.93
72587;BME280;60621;49.576;11.024;2023-03-19T00:11:06;98035.47;;;8.75;67.60
72587;BME280;60621;49.576;11.024;2023-03-19T00:12:09;98032.56;;;8.80;68.02
72587;BME280;60621;49.576;11.024;2023-03-19T00:13:11;98032.13;;;8.78;68.05
72587;BME280;60621;49.576;11.024;2023-03-19T00:14:13;98038.09;;;8.75;67.92
72587;BME280;60621;49.576;11.024;2023-03-19T00:15:18;98039.63;;;8.76;67.78
72587;BME280;60621;49.576;11.024;2023-03-19T00:16:20;98029.91;;;8.80;68.04
72587;BME280;60621;49.576;11.024;2023-03-19T00:17:22;98031.44;;;8.81;67.81
72587;BME280;60621;49.576;11.024;2023-03-19T00:18:23;98029.22;;;8.83;67.70
72587;BME280;60621;49.576;11.024;2023-03-19T00:19:28;98033.72;;;8.82;67.27
72587;BME280;60621;49.576;11.024;2023-03-19T00:20:34;98027.22;;;8.76;67.82
72587;BME280;60621;49.576;11.024;2023-03-19T00:21:36;98028.72;;;8.77;67.57
72587;BME280;60621;49.576;11.024;2023-03-19T00:22:38;98030.22;;;8.75;67.45
72587;BME280;60621;49.576;11.024;2023-03-19T00:23:40;98038.78;;;8.71;67.83
72587;BME280;60621;49.576;11.024;2023-03-19T00:24:45;98025.78;;;8.79;67.38
72587;BME280;60621;49.576;11.024;2023-03-19T00:25:46;98028.25;;;8.71;67.36
72587;BME280;60621;49.576;11.024;2023-03-19T00:26:48;98027.91;;;8.73;67.20
72587;BME280;60621;49.576;11.024;2023-03-19T00:27:50;98032.47;;;8.76;67.13
72587;BME280;60621;49.576;11.024;2023-03-19T00:28:56;98029.72;;;8.69;67.48
72587;BME280;60621;49.576;11.024;2023-03-19T00:29:59;98032.28;;;8.65;67.11
72587;BME280;60621;49.576;11.024;2023-03-19T00:31:07;98038.16;;;8.59;67.52
72587;BME280;60621;49.576;11.024;2023-03-19T00:32:09;98035.88;;;8.57;67.88
72587;BME280;60621;49.576;11.024;2023-03-19T00:33:13;98033.25;;;8.57;67.94
72587;BME280;60621;49.576;11.024;2023-03-19T00:34:17;98037.75;;;8.57;67.74
72587;BME280;60621;49.576;11.024;2023-03-19T00:35:22;98034.78;;;8.58;67.65
72587;BME280;60621;49.576;11.024;2023-03-19T00:36:34;98032.78;;;8.52;67.88
72587;BME280;60621;49.576;11.024;2023-03-19T00:37:42;98041.69;;;8.47;67.95
72587;BME280;60621;49.576;11.024;2023-03-19T00:38:45;98039.06;;;8.47;67.83
72587;BME280;60621;49.576;11.024;2023-03-19T00:39:55;98042.06;;;8.45;67.60
72587;BME280;60621;49.576;11.024;2023-03-19T00:41:06;98045.44;;;8.46;67.35
72587;BME280;60621;49.576;11.024;2023-03-19T00:42:09;98035.25;;;8.44;68.11
72587;BME280;60621;49.576;11.024;2023-03-19T00:43:14;98040.94;;;8.46;68.26
72587;BME280;60621;49.576;11.024;2023-03-19T00:44:16;98044.81;;;8.53;67.85
72587;BME280;60621;49.576;11.024;2023-03-19T00:45:22;98040.22;;;8.50;68.17
72587;BME280;60621;49.576;11.024;2023-03-19T00:46:24;98042.06;;;8.45;67.97
72587;BME280;60621;49.576;11.024;2023-03-19T00:47:29;98034.44;;;8.40;67.73
72587;BME280;60621;49.576;11.024;2023-03-19T00:48:31;98034.63;;;8.32;67.96
72587;BME280;60621;49.576;11.024;2023-03-19T00:49:35;98033.84;;;8.31;68.32
72587;BME280;60621;49.576;11.024;2023-03-19T00:50:41;98039.16;;;8.35;67.52
72587;BME280;60621;49.576;11.024;2023-03-19T00:51:43;98042.53;;;8.35;68.20
72587;BME280;60621;49.576;11.024;2023-03-19T00:52:45;98034.66;;;8.35;67.85
72587;BME280;60621;49.576;11.024;2023-03-19T00:53:50;98039.38;;;8.26;68.42
72587;BME280;60621;49.576;11.024;2023-03-19T00:54:55;98046.09;;;8.24;68.78
72587;BME280;60621;49.576;11.024;2023-03-19T00:56:12;98035.00;;;8.14;69.11
72587;BME280;60621;49.576;11.024;2023-03-19T00:57:18;98042.81;;;8.11;69.10
72587;BME280;60621;49.576;11.024;2023-03-19T00:58:20;98038.03;;;8.16;68.80
72587;BME280;60621;49.576;11.024;2023-03-19T00:59:22;98033.63;;;8.20;69.13
72587;BME280;60621;49.576;11.024;2023-03-19T01:00:25;98037.44;;;8.23;68.95
72587;BME280;60621;49.576;11.024;2023-03-19T01:01:27;98034.13;;;8.26;69.09
72587;BME280;60621;49.576;11.024;2023-03-19T01:02:30;98040.41;;;8.21;68.04
72587;BME280;60621;49.576;11.024;2023-03-19T01:03:33;98035.09;;;8.18;68.57
72587;BME280;60621;49.576;11.024;2023-03-19T01:04:37;98037.97;;;8.13;69.07
72587;BME280;60621;49.576;11.024;2023-03-19T01:05:41;98033.06;;;8.11;68.92
72587;BME280;60621;49.576;11.024;2023-03-19T01:06:43;98040.66;;;8.16;68.55
72587;BME280;60621;49.576;11.024;2023-03-19T01:07:45;98033.63;;;8.20;68.61
72587;BME280;60621;49.576;11.024;2023-03-19T01:08:47;98040.41;;;8.21;68.66
72587;BME280;60621;49.576;11.024;2023-03-19T01:09:51;98043.03;;;8.21;68.25
72587;BME280;60621;49.576;11.024;2023-03-19T01:10:53;98041.94;;;8.23;68.62
72587;BME280;60621;49.576;11.024;2023-03-19T01:11:55;98040.66;;;8.16;68.64
72587;BME280;60621;49.576;11.024;2023-03-19T01:12:58;98046.19;;;8.11;68.46
72587;BME280;60621;49.576;11.024;2023-03-19T01:14:02;98043.50;;;8.08;68.94
72587;BME280;60621;49.576;11.024;2023-03-19T01:15:05;98049.09;;;8.06;68.82
72587;BME280;60621;49.576;11.024;2023-03-19T01:16:08;98044.59;;;8.07;68.73
72587;BME280;60621;49.576;11.024;2023-03-19T01:17:10;98045.38;;;8.07;68.40
72587;BME280;60621;49.576;11.024;2023-03-19T01:18:12;98047.22;;;8.07;68.66
72587;BME280;60621;49.576;11.024;2023-03-19T01:19:14;98044.19;;;8.05;68.65
72587;BME280;60621;49.576;11.024;2023-03-19T01:20:16;98045.28;;;8.04;68.63
72587;BME280;60621;49.576;11.024;2023-03-19T01:21:20;98042.31;;;8.05;68.43
72587;BME280;60621;49.576;11.024;2023-03-19T01:22:22;98045.44;;;8.11;68.28
72587;BME280;60621;49.576;11.024;2023-03-19T01:23:23;98052.81;;;8.05;68.78
72587;BME280;60621;49.576;11.024;2023-03-19T01:24:28;98047.50;;;8.02;68.78
72587;BME280;60621;49.576;11.024;2023-03-19T01:25:30;98045.88;;;7.97;69.21
72587;BME280;60621;49.576;11.024;2023-03-19T01:26:32;98050.38;;;7.96;69.10
72587;BME280;60621;49.576;11.024;2023-03-19T01:27:33;98054.03;;;7.92;69.40
72587;BME280;60621;49.576;11.024;2023-03-19T01:28:36;98051.75;;;7.90;69.21
72587;BME280;60621;49.576;11.024;2023-03-19T01:29:37;98053.72;;;7.93;68.97
72587;BME280;60621;49.576;11.024;2023-03-19T01:30:42;98047.84;;;8.00;69.28
72587;BME280;60621;49.576;11.024;2023-03-19T01:31:45;98055.72;;;8.00;69.36
72587;BME280;60621;49.576;11.024;2023-03-19T01:32:48;98048.19;;;7.99;68.63
72587;BME280;60621;49.576;11.024;2023-03-19T01:33:50;98045.97;;;8.01;68.82
72587;BME280;60621;49.576;11.024;2023-03-19T01:34:52;98044.59;;;8.07;69.18
72587;BME280;60621;49.576;11.024;2023-03-19T01:35:55;98049.09;;;8.06;68.77
72587;BME280;60621;49.576;11.024;2023-03-19T01:37:00;98045.63;;;8.02;68.79
72587;BME280;60621;49.576;11.024;2023-03-19T01:38:02;98046.31;;;7.99;69.01
72587;BME280;60621;49.576;11.024;2023-03-19T01:39:04;98049.53;;;7.92;68.99
72587;BME280;60621;49.576;11.024;2023-03-19T01:40:06;98045.75;;;7.90;68.94
72587;BME280;60621;49.576;11.024;2023-03-19T01:41:10;98047.44;;;7.82;69.42
72587;BME280;60621;49.576;11.024;2023-03-19T01:42:13;98049.31;;;7.82;69.75
72587;BME280;60621;49.576;11.024;2023-03-19T01:43:19;98043.03;;;7.86;69.28
72587;BME280;60621;49.576;11.024;2023-03-19T01:44:30;98044.13;;;7.85;69.69
72587;BME280;60621;49.576;11.024;2023-03-19T01:45:35;98043.22;;;7.78;69.74
72587;BME280;60621;49.576;11.024;2023-03-19T01:46:38;98044.81;;;7.82;69.49
72587;BME280;60621;49.576;11.024;2023-03-19T01:47:43;98048.13;;;7.79;69.64
72587;BME280;60621;49.576;11.024;2023-03-19T01:48:50;98034.75;;;7.84;69.44
72587;BME280;60621;49.576;11.024;2023-03-19T01:49:54;98038.41;;;7.80;69.90
72587;BME280;60621;49.576;11.024;2023-03-19T01:50:57;98042.19;;;7.82;69.50
72587;BME280;60621;49.576;11.024;2023-03-19T01:52:01;98041.88;;;7.84;69.30
72587;BME280;60621;49.576;11.024;2023-03-19T01:53:04;98042.63;;;7.84;69.36
72587;BME280;60621;49.576;11.024;2023-03-19T01:54:09;98040.84;;;7.88;69.84
72587;BME280;60621;49.576;11.024;2023-03-19T01:55:14;98041.66;;;7.92;70.00
72587;BME280;60621;49.576;11.024;2023-03-19T01:56:19;98037.94;;;7.93;69.26
72587;BME280;60621;49.576;11.024;2023-03-19T01:57:23;98033.38;;;7.90;69.27
72587;BME280;60621;49.576;11.024;2023-03-19T01:58:25;98033.84;;;7.96;69.59
72587;BME280;60621;49.576;11.024;2023-03-19T01:59:32;98028.41;;;7.69;69.97
72587;BME280;60621;49.576;11.024;2023-03-19T02:00:36;98032.75;;;7.62;70.17
72587;BME280;60621;49.576;11.024;2023-03-19T02:03:02;98036.03;;;7.75;69.93
72587;BME280;60621;49.576;11.024;2023-03-19T02:04:05;98038.53;;;7.87;69.51
72587;BME280;60621;49.576;11.024;2023-03-19T02:05:11;98029.03;;;7.98;69.03
72587;BME280;60621;49.576;11.024;2023-03-19T02:06:14;98033.31;;;8.06;68.98
72587;BME280;60621;49.576;11.024;2023-03-19T02:07:16;98027.03;;;8.11;69.13
72587;BME280;60621;49.576;11.024;2023-03-19T02:08:19;98030.16;;;8.16;68.40
72587;BME280;60621;49.576;11.024;2023-03-19T02:09:24;98031.97;;;8.12;68.78
72587;BME280;60621;49.576;11.024;2023-03-19T02:10:28;98031.25;;;8.15;68.72
72587;BME280;60621;49.576;11.024;2023-03-19T02:11:31;98033.94;;;8.00;69.26
72587;BME280;60621;49.576;11.024;2023-03-19T02:12:33;98026.59;;;7.89;69.97
72587;BME280;60621;49.576;11.024;2023-03-19T02:13:35;98035.66;;;7.92;70.04
72587;BME280;60621;49.576;11.024;2023-03-19T02:14:37;98044.44;;;8.00;70.13
72587;BME280;60621;49.576;11.024;2023-03-19T02:15:39;98042.75;;;8.07;69.15
72587;BME280;60621;49.576;11.024;2023-03-19T02:16:40;98045.09;;;8.12;68.92
72587;BME280;60621;49.576;11.024;2023-03-19T02:17:42;98041.44;;;8.17;69.44
72587;BME280;60621;49.576;11.024;2023-03-19T02:18:45;98041.19;;;8.22;69.09
72587;BME280;60621;49.576;11.024;2023-03-19T02:19:54;98042.78;;;8.27;69.11
72587;BME280;60621;49.576;11.024;2023-03-19T02:21:10;98040.56;;;8.29;68.83
72587;BME280;60621;49.576;11.024;2023-03-19T02:22:16;98050.66;;;8.27;68.53
72587;BME280;60621;49.576;11.024;2023-03-19T02:24:38;98045.44;;;8.30;68.71
72587;BME280;60621;49.576;11.024;2023-03-19T02:26:49;98047.41;;;8.33;68.47
72587;BME280;60621;49.576;11.024;2023-03-19T02:27:52;98051.22;;;8.36;68.30
72587;BME280;60621;49.576;11.024;2023-03-19T02:28:55;98048.84;;;8.31;68.78
72587;BME280;60621;49.576;11.024;2023-03-19T02:29:56;98053.78;;;8.32;68.64
72587;BME280;60621;49.576;11.024;2023-03-19T02:30:58;98060.16;;;8.15;69.14
72587;BME280;60621;49.576;11.024;2023-03-19T02:32:00;98056.97;;;8.06;69.73
72587;BME280;60621;49.576;11.024;2023-03-19T02:33:04;98046.13;;;8.08;69.37
72587;BME280;60621;49.576;11.024;2023-03-19T02:35:26;98046.81;;;8.05;69.52
72587;BME280;60621;49.576;11.024;2023-03-19T02:36:38;98046.06;;;8.04;69.85
72587;BME280;60621;49.576;11.024;2023-03-19T02:37:43;98044.94;;;8.05;68.71
72587;BME280;60621;49.576;11.024;2023-03-19T02:38:45;98046.66;;;7.98;69.41
72587;BME280;60621;49.576;11.024;2023-03-19T02:40:05;98047.28;;;8.10;68.86
72587;BME280;60621;49.576;11.024;2023-03-19T02:41:09;98045.88;;;8.13;69.38
72587;BME280;60621;49.576;11.024;2023-03-19T02:42:11;98052.91;;;8.09;69.34
72587;BME280;60621;49.576;11.024;2023-03-19T02:43:13;98044.94;;;8.05;69.26
72587;BME280;60621;49.576;11.024;2023-03-19T02:44:15;98051.38;;;8.08;69.29
72587;BME280;60621;49.576;11.024;2023-03-19T02:45:20;98046.41;;;8.03;70.06
72587;BME280;60621;49.576;11.024;2023-03-19T02:46:22;98049.84;;;8.07;69.74
72587;BME280;60621;49.576;11.024;2023-03-19T02:47:25;98050.63;;;8.07;69.84
72587;BME280;60621;49.576;11.024;2023-03-19T02:48:26;98049.53;;;8.08;69.45
72587;BME280;60621;49.576;11.024;2023-03-19T02:49:28;98048.00;;;8.07;70.35
72587;BME280;60621;49.576;11.024;2023-03-19T02:50:30;98049.34;;;8.17;69.58
72587;BME280;60621;49.576;11.024;2023-03-19T02:51:32;98053.13;;;8.19;69.89
72587;BME280;60621;49.576;11.024;2023-03-19T02:52:34;98054.06;;;8.11;70.14
72587;BME280;60621;49.576;11.024;2023-03-19T02:53:35;98046.19;;;8.11;69.75
72587;BME280;60621;49.576;11.024;2023-03-19T02:54:37;98043.50;;;8.08;70.28
72587;BME280;60621;49.576;11.024;2023-03-19T02:55:39;98044.59;;;8.07;69.82
72587;BME280;60621;49.576;11.024;2023-03-19T02:56:41;98053.50;;;8.02;70.07
72587;BME280;60621;49.576;11.024;2023-03-19T02:57:44;98044.28;;;7.92;69.99
72587;BME280;60621;49.576;11.024;2023-03-19T02:58:46;98051.09;;;7.93;70.15
72587;BME280;60621;49.576;11.024;2023-03-19T02:59:48;98045.47;;;7.95;70.42
72587;BME280;60621;49.576;11.024;2023-03-19T03:00:49;98045.47;;;7.95;69.58
72587;BME280;60621;49.576;11.024;2023-03-19T03:01:52;98055.03;;;8.03;69.95
72587;BME280;60621;49.576;11.024;2023-03-19T03:02:56;98047.06;;;8.00;69.71
72587;BME280;60621;49.576;11.024;2023-03-19T03:03:58;98046.78;;;7.85;70.05
72587;BME280;60621;49.576;11.024;2023-03-19T03:04:59;98056.59;;;7.88;70.17
72587;BME280;60621;49.576;11.024;2023-03-19T03:06:01;98056.41;;;7.97;70.12
72587;BME280;60621;49.576;11.024;2023-03-19T03:07:04;98059.63;;;7.90;70.52
72587;BME280;60621;49.576;11.024;2023-03-19T03:08:05;98062.94;;;7.87;71.02
72587;BME280;60621;49.576;11.024;2023-03-19T03:09:07;98065.91;;;7.86;70.93
72587;BME280;60621;49.576;11.024;2023-03-19T03:10:09;98056.16;;;7.86;70.77
72587;BME280;60621;49.576;11.024;2023-03-19T03:11:10;98059.97;;;7.89;70.31
72587;BME280;60621;49.576;11.024;2023-03-19T03:12:13;98057.50;;;7.96;70.53
72587;BME280;60621;49.576;11.024;2023-03-19T03:13:14;98059.03;;;7.97;70.04
72587;BME280;60621;49.576;11.024;2023-03-19T03:14:16;98054.78;;;7.92;69.94
72587;BME280;60621;49.576;11.024;2023-03-19T03:15:17;98062.34;;;7.94;69.44
72587;BME280;60621;49.576;11.024;2023-03-19T03:16:19;98063.94;;;7.99;69.38
72587;BME280;60621;49.576;11.024;2023-03-19T03:17:22;98062.25;;;7.90;69.83
72587;BME280;60621;49.576;11.024;2023-03-19T03:18:24;98066.66;;;7.86;70.13
72587;BME280;60621;49.576;11.024;2023-03-19T03:19:26;98065.41;;;7.80;70.41
72587;BME280;60621;49.576;11.024;2023-03-19T03:20:28;98070.06;;;7.87;70.14
72587;BME280;60621;49.576;11.024;2023-03-19T03:21:30;98061.16;;;7.91;70.13
72587;BME280;60621;49.576;11.024;2023-03-19T03:22:34;98066.00;;;7.89;70.09
72587;BME280;60621;49.576;11.024;2023-03-19T03:23:36;98059.28;;;7.92;70.36
72587;BME280;60621;49.576;11.024;2023-03-19T03:24:37;98064.53;;;7.92;69.85
72587;BME280;60621;49.576;11.024;2023-03-19T03:25:39;98064.88;;;7.90;70.14
72587;BME280;60621;49.576;11.024;2023-03-19T03:26:40;98068.72;;;7.93;69.77
72587;BME280;60621;49.576;11.024;2023-03-19T03:27:42;98066.00;;;7.89;70.21
72587;BME280;60621;49.576;11.024;2023-03-19T03:28:44;98069.38;;;7.90;69.99
72587;BME280;60621;49.576;11.024;2023-03-19T03:29:45;98072.41;;;7.92;70.56
72587;BME280;60621;49.576;11.024;2023-03-19T03:30:47;98067.69;;;7.82;70.31
72587;BME280;60621;49.576;11.024;2023-03-19T03:31:49;98076.59;;;7.77;71.19
72587;BME280;60621;49.576;11.024;2023-03-19T03:32:51;98070.09;;;7.71;71.00
72587;BME280;60621;49.576;11.024;2023-03-19T03:33:53;98072.84;;;7.78;70.43
72587;BME280;60621;49.576;11.024;2023-03-19T03:34:54;98073.78;;;7.86;70.49
72587;BME280;60621;49.576;11.024;2023-03-19T03:35:56;98072.75;;;7.90;70.38
72587;BME280;60621;49.576;11.024;2023-03-19T03:36:57;98075.81;;;7.92;69.96
72587;BME280;60621;49.576;11.024;2023-03-19T03:37:59;98078.44;;;7.92;70.54
72587;BME280;60621;49.576;11.024;2023-03-19T03:39:00;98087.69;;;7.86;70.44
72587;BME280;60621;49.576;11.024;2023-03-19T03:40:03;98078.44;;;7.92;69.88
72587;BME280;60621;49.576;11.024;2023-03-19T03:41:08;98082.59;;;7.93;70.06
72587;BME280;60621;49.576;11.024;2023-03-19T03:42:10;98081.41;;;7.91;70.05
72587;BME280;60621;49.576;11.024;2023-03-19T03:43:12;98087.28;;;7.84;70.44
72587;BME280;60621;49.576;11.024;2023-03-19T03:44:13;98084.56;;;7.81;70.31
72587;BME280;60621;49.576;11.024;2023-03-19T03:45:15;98087.94;;;7.81;70.71
72587;BME280;60621;49.576;11.024;2023-03-19T03:46:17;98088.13;;;7.88;70.38
72587;BME280;60621;49.576;11.024;2023-03-19T03:47:19;98091.16;;;7.90;69.88
72587;BME280;60621;49.576;11.024;2023-03-19T03:48:21;98080.22;;;7.88;70.20
72587;BME280;60621;49.576;11.024;2023-03-19T03:49:23;98092.25;;;7.89;70.38
72587;BME280;60621;49.576;11.024;2023-03-19T03:50:24;98089.81;;;7.81;70.25
72587;BME280;60621;49.576;11.024;2023-03-19T03:51:26;98087.28;;;7.84;70.40
72587;BME280;60621;49.576;11.024;2023-03-19T03:52:27;98089.91;;;7.84;70.40
72587;BME280;60621;49.576;11.024;2023-03-19T03:53:34;98084.91;;;7.79;70.11
72587;BME280;60621;49.576;11.024;2023-03-19T03:54:35;98092.03;;;7.79;70.74
72587;BME280;60621;49.576;11.024;2023-03-19T03:55:37;98086.69;;;7.75;70.63
72587;BME280;60621;49.576;11.024;2023-03-19T03:56:39;98097.09;;;7.72;71.37
72587;BME280;60621;49.576;11.024;2023-03-19T03:57:41;98089.97;;;7.72;70.75
72587;BME280;60621;49.576;11.024;2023-03-19T03:58:43;98090.41;;;7.74;70.86
72587;BME280;60621;49.576;11.024;2023-03-19T03:59:44;98100.56;;;7.76;71.03
72587;BME280;60621;49.576;11.024;2023-03-19T04:00:46;98090.91;;;7.80;70.55
72587;BME280;60621;49.576;11.024;2023-03-19T04:01:48;98086.41;;;7.80;70.80
72587;BME280;60621;49.576;11.024;2023-03-19T04:02:50;98085.75;;;7.83;70.61
72587;BME280;60621;49.576;11.024;2023-03-19T04:03:51;98092.44;;;7.81;70.79
72587;BME280;60621;49.576;11.024;2023-03-19T04:04:53;98091.31;;;7.82;70.34
72587;BME280;60621;49.576;11.024;2023-03-19T04:05:55;98087.28;;;7.84;70.32
72587;BME280;60621;49.576;11.024;2023-03-19T04:06:57;98087.28;;;7.84;70.11
72587;BME280;60621;49.576;11.024;2023-03-19T04:07:58;98089.13;;;7.84;70.78
72587;BME280;60621;49.576;11.024;2023-03-19T04:09:00;98090.56;;;7.81;70.41
72587;BME280;60621;49.576;11.024;2023-03-19T04:10:03;98094.56;;;7.75;70.29
72587;BME280;60621;49.576;11.024;2023-03-19T04:11:06;98084.97;;;7.83;70.15
72587;BME280;60621;49.576;11.024;2023-03-19T04:12:08;98093.03;;;7.90;70.21
72587;BME280;60621;49.576;11.024;2023-03-19T04:13:10;98098.94;;;7.87;70.36
72587;BME280;60621;49.576;11.024;2023-03-19T04:14:12;98083.78;;;7.80;70.14
72587;BME280;60621;49.576;11.024;2023-03-19T04:15:14;98091.44;;;7.69;70.57
72587;BME280;60621;49.576;11.024;2023-03-19T04:16:20;98094.97;;;7.77;70.60
72587;BME280;60621;49.576;11.024;2023-03-19T04:17:23;98089.41;;;7.79;71.16
72587;BME280;60621;49.576;11.024;2023-03-19T04:18:25;98094.66;;;7.79;70.30
72587;BME280;60621;49.576;11.024;2023-03-19T04:19:30;98097.69;;;7.81;71.06
72587;BME280;60621;49.576;11.024;2023-03-19T04:20:32;98096.16;;;7.80;70.68
72587;BME280;60621;49.576;11.024;2023-03-19T04:21:34;98094.03;;;7.85;70.22
72587;BME280;60621;49.576;11.024;2023-03-19T04:22:35;98095.16;;;7.84;70.26
72587;BME280;60621;49.576;11.024;2023-03-19T04:23:37;98097.34;;;7.82;70.29
72587;BME280;60621;49.576;11.024;2023-03-19T04:24:38;98096.56;;;7.82;70.84
72587;BME280;60621;49.576;11.024;2023-03-19T04:25:40;98099.91;;;7.79;70.62
72587;BME280;60621;49.576;11.024;2023-03-19T04:26:41;98096.31;;;7.87;71.23
72587;BME280;60621;49.576;11.024;2023-03-19T04:27:44;98110.13;;;8.00;70.89
72587;BME280;60621;49.576;11.024;2023-03-19T04:28:46;98102.81;;;8.09;70.17
72587;BME280;60621;49.576;11.024;2023-03-19T04:29:48;98107.81;;;8.14;70.74
72587;BME280;60621;49.576;11.024;2023-03-19T04:30:50;98110.34;;;8.10;70.26
72587;BME280;60621;49.576;11.024;2023-03-19T04:31:52;98107.91;;;8.17;70.55
72587;BME280;60621;49.576;11.024;2023-03-19T04:32:54;98109.16;;;8.24;69.73
72587;BME280;60621;49.576;11.024;2023-03-19T04:33:57;98114.41;;;8.24;69.86
72587;BME280;60621;49.576;11.024;2023-03-19T04:34:59;98111.78;;;8.24;69.72
72587;BME280;60621;49.576;11.024;2023-03-19T04:36:02;98113.28;;;8.25;70.18
72587;BME280;60621;49.576;11.024;2023-03-19T04:37:04;98112.97;;;8.26;69.64
72587;BME280;60621;49.576;11.024;2023-03-19T04:38:06;98110.94;;;8.19;70.10
72587;BME280;60621;49.576;11.024;2023-03-19T04:39:12;98110.03;;;8.12;70.55
72587;BME280;60621;49.576;11.024;2023-03-19T04:40:14;98116.47;;;7.99;70.27
72587;BME280;60621;49.576;11.024;2023-03-19T04:41:17;98118.16;;;7.91;71.83
72587;BME280;60621;49.576;11.024;2023-03-19T04:42:19;98111.75;;;7.88;71.84
72587;BME280;60621;49.576;11.024;2023-03-19T04:43:22;98117.06;;;7.92;70.73
72587;BME280;60621;49.576;11.024;2023-03-19T04:44:24;98118.34;;;7.98;71.06
72587;BME280;60621;49.576;11.024;2023-03-19T04:45:25;98112.66;;;7.96;70.97
72587;BME280;60621;49.576;11.024;2023-03-19T04:46:27;98117.91;;;7.96;70.61
72587;BME280;60621;49.576;11.024;2023-03-19T04:47:29;98110.38;;;7.94;70.65
72587;BME280;60621;49.576;11.024;2023-03-19T04:48:33;98117.91;;;7.96;70.73
72587;BME280;60621;49.576;11.024;2023-03-19T04:49:40;98115.63;;;7.94;70.42
72587;BME280;60621;49.576;11.024;2023-03-19T04:50:43;98118.94;;;7.91;70.93
72587;BME280;60621;49.576;11.024;2023-03-19T04:51:46;98113.34;;;7.93;70.79
72587;BME280;60621;49.576;11.024;2023-03-19T04:52:47;98121.91;;;7.90;71.01
72587;BME280;60621;49.576;11.024;2023-03-19T04:53:49;98115.72;;;7.82;70.97
72587;BME280;60621;49.576;11.024;2023-03-19T04:54:51;98126.31;;;7.86;71.26
72587;BME280;60621;49.576;11.024;2023-03-19T04:55:53;98116.31;;;7.91;70.63
72587;BME280;60621;49.576;11.024;2023-03-19T04:56:55;98117.41;;;7.90;70.44
72587;BME280;60621;49.576;11.024;2023-03-19T04:57:57;98118.63;;;7.93;71.05
72587;BME280;60621;49.576;11.024;2023-03-19T04:58:58;98115.91;;;7.89;71.04
72587;BME280;60621;49.576;11.024;2023-03-19T05:00:00;98120.31;;;7.85;71.57
72587;BME280;60621;49.576;11.024;2023-03-19T05:01:02;98118.16;;;7.91;71.14
72587;BME280;60621;49.576;11.024;2023-03-19T05:02:04;98122.31;;;7.92;70.99
72587;BME280;60621;49.576;11.024;2023-03-19T05:03:06;98126.31;;;7.86;71.11
72587;BME280;60621;49.576;11.024;2023-03-19T05:04:08;98122.06;;;7.81;71.53
72587;BME280;60621;49.576;11.024;2023-03-19T05:05:11;98123.03;;;7.89;71.38
72587;BME280;60621;49.576;11.024;2023-03-19T05:06:15;98120.38;;;7.89;71.45
72587;BME280;60621;49.576;11.024;2023-03-19T05:07:17;98121.41;;;7.84;71.29
72587;BME280;60621;49.576;11.024;2023-03-19T05:08:19;98121.72;;;7.83;71.52
72587;BME280;60621;49.576;11.024;2023-03-19T05:09:21;98116.41;;;7.79;71.91
72587;BME280;60621;49.576;11.024;2023-03-19T05:10:26;98128.34;;;7.77;72.27
72587;BME280;60621;49.576;11.024;2023-03-19T05:11:28;98127.06;;;7.86;71.80
72587;BME280;60621;49.576;11.024;2023-03-19T05:12:30;98123.59;;;7.98;71.61
72587;BME280;60621;49.576;11.024;2023-03-19T05:13:32;98132.31;;;8.02;71.35
72587;BME280;60621;49.576;11.024;2023-03-19T05:14:33;98132.25;;;7.99;71.45
72587;BME280;60621;49.576;11.024;2023-03-19T05:15:35;98137.81;;;7.97;70.75
72587;BME280;60621;49.576;11.024;2023-03-19T05:16:39;98147.41;;;8.05;71.44
72587;BME280;60621;49.576;11.024;2023-03-19T05:17:41;98145.34;;;8.14;70.68
72587;BME280;60621;49.576;11.024;2023-03-19T05:18:43;98144.25;;;8.15;70.81
72587;BME280;60621;49.576;11.024;2023-03-19T05:19:45;98146.50;;;7.98;71.35
72587;BME280;60621;49.576;11.024;2023-03-19T05:20:47;98144.88;;;7.93;71.80
72587;BME280;60621;49.576;11.024;2023-03-19T05:21:49;98144.88;;;7.93;71.24
72587;BME280;60621;49.576;11.024;2023-03-19T05:22:52;98148.41;;;8.01;71.26
72587;BME280;60621;49.576;11.024;2023-03-19T05:23:53;98155.19;;;8.02;71.16
72587;BME280;60621;49.576;11.024;2023-03-19T05:24:57;98149.88;;;7.98;71.84
72587;BME280;60621;49.576;11.024;2023-03-19T05:25:59;98156.66;;;7.99;71.88
72587;BME280;60621;49.576;11.024;2023-03-19T05:27:03;98149.66;;;8.07;71.76
72587;BME280;60621;49.576;11.024;2023-03-19T05:28:06;98149.44;;;7.96;71.49
72587;BME280;60621;49.576;11.024;2023-03-19T05:29:08;98146.41;;;7.94;71.76
72587;BME280;60621;49.576;11.024;2023-03-19T05:30:11;98146.66;;;7.89;71.63
72587;BME280;60621;49.576;11.024;2023-03-19T05:31:13;98157.16;;;7.89;72.11
72587;BME280;60621;49.576;11.024;2023-03-19T05:32:15;98154.84;;;7.87;72.26
72587;BME280;60621;49.576;11.024;2023-03-19T05:33:17;98159.44;;;7.90;71.76
72587;BME280;60621;49.576;11.024;2023-03-19T05:34:19;98154.19;;;7.90;72.47
72587;BME280;60621;49.576;11.024;2023-03-19T05:35:20;98156.06;;;7.90;71.68
72587;BME280;60621;49.576;11.024;2023-03-19T05:36:23;98154.84;;;7.87;71.58
72587;BME280;60621;49.576;11.024;2023-03-19T05:37:24;98154.03;;;7.99;71.69
72587;BME280;60621;49.576;11.024;2023-03-19T05:38:27;98161.03;;;8.11;71.10